This is the latest recevied weather packets stored in our database for station/object N8AMF. If no packets are shown the sender has not sent any weather packets the latest 1 day(s).
| Time | Temp. | Humidity | Pressure | Rain* | Wind** | Luminosity | Snow |
|---|---|---|---|---|---|---|---|
| 1777993032 | 20° C | 61% | 1005 hPa | 0 mm | 1.79 m/s, 231° | 617 W/m² | - |
| 1777992731 | 19.44° C | 62% | 1004.8 hPa | 0 mm | 0.45 m/s, 239° | 652 W/m² | - |
| 1777992428 | 19.44° C | 62% | 1005 hPa | 0 mm | 0.45 m/s, 87° | 318 W/m² | - |
| 1777992126 | 19.44° C | 63% | 1004.9 hPa | 0 mm | 1.34 m/s, 233° | 604 W/m² | - |
| 1777991823 | 19.44° C | 62% | 1004.8 hPa | 0 mm | 0.89 m/s, 204° | 639 W/m² | - |
| 1777991520 | 18.89° C | 62% | 1005.1 hPa | 0 mm | 2.24 m/s, 235° | 564 W/m² | - |
| 1777991217 | 18.89° C | 64% | 1004.9 hPa | 0 mm | 1.79 m/s, 247° | 516 W/m² | - |
| 1777990914 | 18.89° C | 64% | 1005.1 hPa | 0 mm | 1.79 m/s, 202° | 545 W/m² | - |
| 1777990612 | 18.89° C | 63% | 1004.9 hPa | 0 mm | 1.79 m/s, 223° | 533 W/m² | - |
| 1777990308 | 18.89° C | 64% | 1005.1 hPa | 0 mm | 0.89 m/s, 220° | 502 W/m² | - |
| 1777990005 | 18.33° C | 65% | 1005.1 hPa | 0 mm | 2.68 m/s, 267° | 531 W/m² | - |
| 1777989702 | 18.33° C | 65% | 1005.1 hPa | 0 mm | 1.34 m/s, 204° | 538 W/m² | - |
| 1777989398 | 18.33° C | 66% | 1005 hPa | 0 mm | 1.34 m/s, 202° | 449 W/m² | - |
| 1777989095 | 18.33° C | 67% | 1004.9 hPa | 0 mm | 0.89 m/s, 235° | 248 W/m² | - |
| 1777988790 | 18.89° C | 67% | 1004.6 hPa | 0 mm | 0 m/s | 228 W/m² | - |
| 1777988488 | 18.33° C | 67% | 1004.8 hPa | 0 mm | 0 m/s | 217 W/m² | - |
| 1777988185 | 18.33° C | 67% | 1005 hPa | 0 mm | 0.45 m/s, 239° | 183 W/m² | - |
| 1777987881 | 18.33° C | 67% | 1004.6 hPa | 0 mm | 0.89 m/s, 196° | 181 W/m² | - |
| 1777987577 | 18.33° C | 69% | 1004.8 hPa | 0 mm | 1.34 m/s, 185° | 264 W/m² | - |
| 1777987275 | 18.33° C | 70% | 1004.8 hPa | 0 mm | 1.34 m/s, 225° | 208 W/m² | - |
| 1777986971 | 17.78° C | 70% | 1004.9 hPa | 0 mm | 0.89 m/s, 189° | 236 W/m² | - |
| 1777986670 | 17.22° C | 72% | 1004.9 hPa | 0 mm | 0 m/s | 424 W/m² | - |
| 1777986367 | 17.22° C | 72% | 1004.7 hPa | 0 mm | 0.89 m/s, 1° | 110 W/m² | - |
| 1777986066 | 17.22° C | 72% | 1004.7 hPa | 0 mm | 0.45 m/s, 191° | 154 W/m² | - |
| 1777985762 | 16.67° C | 72% | 1004.5 hPa | 0 mm | 0.89 m/s, 188° | 145 W/m² | - |
* Rain latest hour (hover to see other rain measurements)
** Current wind speed in m/s (hover to see current wind gust speed)